Time;durP1;ratioP1;P1;durP2;ratioP2;P2;SDS_P1;SDS_P2;PMS_P1;PMS_P2;Temp;Humidity;BMP_temperature;BMP_pressure;BME280_temperature;BME280_humidity;BME280_pressure;Samples;Min_cycle;Max_cycle;Signal;HPM_P1;HPM_P2
2021/05/22 00:01:48;;;;;;;3.28;1.58;;;;;;;20.45;41.88;101656.38;144994;564;5002;-73
2021/05/22 00:04:14;;;;;;;1.67;1.55;;;;;;;20.53;41.79;101653.78;144994;586;5002;-73
2021/05/22 00:06:41;;;;;;;2.20;1.70;;;;;;;20.49;41.65;101652.91;144994;626;5002;-73
2021/05/22 00:09:07;;;;;;;3.08;1.40;;;;;;;20.44;41.43;101650.25;144994;579;5002;-74
2021/05/22 00:11:35;;;;;;;2.30;1.80;;;;;;;20.45;41.00;101656.38;144994;599;5002;-75
2021/05/22 00:14:03;;;;;;;2.00;1.52;;;;;;;20.50;41.66;101657.28;144994;629;5002;-74
2021/05/22 00:16:30;;;;;;;2.90;1.70;;;;;;;20.43;41.56;101653.75;144993;604;5002;-74
2021/05/22 00:19:03;;;;;;;3.30;1.60;;;;;;;20.45;40.82;101661.66;144994;609;5002;-73
2021/05/22 00:21:30;;;;;;;2.25;1.52;;;;;;;20.48;41.47;101659.03;144994;656;5002;-75
2021/05/22 00:23:56;;;;;;;2.15;1.67;;;;;;;20.42;40.34;101657.25;144994;631;5002;-74
2021/05/22 00:26:22;;;;;;;2.85;1.60;;;;;;;20.44;41.55;101663.44;144994;578;5002;-74
2021/05/22 00:28:49;;;;;;;1.92;1.73;;;;;;;20.35;41.40;101662.50;144994;631;5002;-74
2021/05/22 00:31:16;;;;;;;3.55;1.60;;;;;;;20.43;41.28;101655.50;144994;649;5002;-73
2021/05/22 00:33:42;;;;;;;2.78;1.55;;;;;;;20.46;41.31;101652.88;144994;564;5002;-74
2021/05/22 00:36:09;;;;;;;1.50;1.40;;;;;;;20.51;41.17;101656.41;144994;581;5002;-74
2021/05/22 00:38:35;;;;;;;1.70;1.60;;;;;;;20.56;40.73;101654.66;144994;595;5002;-75
2021/05/22 00:41:02;;;;;;;1.80;1.50;;;;;;;20.60;41.17;101661.72;144994;610;5002;-75
2021/05/22 00:43:28;;;;;;;4.07;1.70;;;;;;;20.62;40.47;101654.69;144994;628;5002;-74
2021/05/22 00:45:55;;;;;;;3.20;1.67;;;;;;;20.64;40.66;101650.31;144994;583;5002;-75
2021/05/22 00:48:22;;;;;;;2.70;1.83;;;;;;;20.68;40.64;101652.97;144994;569;5002;-76
2021/05/22 00:50:51;;;;;;;2.10;1.90;;;;;;;20.67;40.54;101646.81;144994;587;5002;-74
2021/05/22 00:53:17;;;;;;;3.20;2.00;;;;;;;20.68;40.25;101652.97;144994;576;5002;-74
2021/05/22 00:55:44;;;;;;;2.53;2.10;;;;;;;20.70;40.46;101651.25;144994;571;5002;-75
2021/05/22 00:58:11;;;;;;;2.37;1.80;;;;;;;20.72;40.42;101660.03;144994;581;5002;-75
2021/05/22 01:00:48;;;;;;;2.72;1.75;;;;;;;20.67;40.28;101660.00;144994;583;5002;-75
2021/05/22 01:03:23;;;;;;;1.92;1.60;;;;;;;20.57;40.66;101656.44;144994;587;5002;-74
2021/05/22 01:05:52;;;;;;;3.08;1.80;;;;;;;20.51;40.61;101663.47;144994;609;5002;-74
2021/05/22 01:08:23;;;;;;;3.72;1.80;;;;;;;20.48;40.77;101662.53;144994;652;5002;-75
2021/05/22 01:11:02;;;;;;;2.03;1.65;;;;;;;20.40;40.63;101655.50;144994;564;5002;-75
2021/05/22 01:13:34;;;;;;;2.78;1.70;;;;;;;20.45;41.29;101656.38;144994;580;5002;-75
2021/05/22 01:16:01;;;;;;;2.22;1.70;;;;;;;20.40;40.29;101656.38;144994;631;5002;-76
2021/05/22 01:18:29;;;;;;;5.32;1.65;;;;;;;20.45;40.83;101656.38;144994;565;5002;-74
2021/05/22 01:20:59;;;;;;;1.83;1.60;;;;;;;20.50;40.92;101659.03;144994;583;5002;-73
2021/05/22 01:23:57;;;;;;;2.35;1.90;;;;;;;20.50;40.61;101665.19;144994;592;5002;-74
2021/05/22 01:26:26;;;;;;;2.20;1.33;;;;;;;20.44;40.76;101658.16;144994;622;5002;-74
2021/05/22 01:28:55;;;;;;;1.75;1.40;;;;;;;20.45;40.57;101657.25;144994;578;5002;-74
2021/05/22 01:31:22;;;;;;;2.28;1.75;;;;;;;20.44;40.38;101655.53;144994;567;5002;-74
2021/05/22 01:33:48;;;;;;;3.80;1.50;;;;;;;20.42;40.42;101657.25;144994;570;5002;-74
2021/05/22 01:36:15;;;;;;;3.47;1.58;;;;;;;20.45;40.71;101661.66;144994;652;5002;-73
2021/05/22 01:38:41;;;;;;;1.50;1.40;;;;;;;20.41;40.82;101655.50;144994;610;5002;-73
2021/05/22 01:41:08;;;;;;;2.30;1.60;;;;;;;20.26;40.75;101668.59;144994;576;5002;-74
2021/05/22 01:43:39;;;;;;;1.60;1.50;;;;;;;20.12;40.42;101666.78;144994;582;5002;-73
2021/05/22 01:46:09;;;;;;;2.10;1.42;;;;;;;20.08;40.96;101672.03;144993;570;5002;-74
2021/05/22 01:48:45;;;;;;;3.08;1.70;;;;;;;19.89;40.31;101666.66;144994;564;5002;-74
2021/05/22 01:51:31;;;;;;;3.87;1.75;;;;;;;19.94;41.32;101664.91;144994;638;5002;-74
2021/05/22 01:54:12;;;;;;;4.30;1.65;;;;;;;20.00;41.22;101669.34;144994;603;5002;-74
2021/05/22 01:56:40;;;;;;;2.97;2.12;;;;;;;20.17;40.95;101674.72;144994;577;5002;-74
2021/05/22 01:59:08;;;;;;;2.97;2.17;;;;;;;20.12;41.36;101673.81;144994;658;5002;-73
2021/05/22 02:01:34;;;;;;;3.58;2.05;;;;;;;20.20;41.39;101666.84;144994;564;5003;-73
2021/05/22 02:04:04;;;;;;;3.42;2.03;;;;;;;20.11;41.67;101664.16;144994;631;5002;-74
2021/05/22 02:06:43;;;;;;;4.30;1.90;;;;;;;20.03;41.48;101671.16;144994;567;5002;-74
2021/05/22 02:09:14;;;;;;;3.47;1.98;;;;;;;19.93;41.67;101670.19;144994;571;5002;-75
2021/05/22 02:11:43;;;;;;;2.05;1.83;;;;;;;19.96;41.76;101680.75;144994;640;5002;-74
2021/05/22 02:14:12;;;;;;;2.80;1.98;;;;;;;19.92;41.28;101677.22;144994;566;5002;-73
2021/05/22 02:16:56;;;;;;;4.35;2.08;;;;;;;19.85;41.36;101670.16;144994;578;5002;-73
2021/05/22 02:19:28;;;;;;;1.77;1.60;;;;;;;19.80;41.13;101671.84;144994;600;5002;-73
2021/05/22 02:21:55;;;;;;;1.62;1.30;;;;;;;19.64;41.07;101665.56;144994;578;5002;-73
2021/05/22 02:24:24;;;;;;;1.45;1.35;;;;;;;19.63;41.50;101665.56;144994;605;5002;-73
2021/05/22 02:26:57;;;;;;;2.60;1.50;;;;;;;19.60;41.23;101663.78;144994;567;5002;-74
2021/05/22 02:29:25;;;;;;;2.08;1.20;;;;;;;19.67;41.30;101664.72;144994;604;5002;-75
2021/05/22 02:31:52;;;;;;;1.40;1.23;;;;;;;19.69;41.33;101673.50;144994;717;5002;-74
2021/05/22 02:34:25;;;;;;;2.80;1.70;;;;;;;19.75;40.90;101678.81;144994;592;5002;-74
2021/05/22 02:36:54;;;;;;;1.80;1.48;;;;;;;19.77;40.79;101676.22;144994;589;5002;-74
2021/05/22 02:39:22;;;;;;;5.28;2.58;;;;;;;19.63;41.52;101669.09;144994;600;5002;-75
2021/05/22 02:41:52;;;;;;;4.37;2.47;;;;;;;19.57;41.51;101661.13;144994;603;5002;-74
2021/05/22 02:44:20;;;;;;;5.32;2.53;;;;;;;19.65;41.21;101646.28;144994;569;5002;-73
2021/05/22 02:46:50;;;;;;;4.07;1.95;;;;;;;19.67;41.22;101633.09;144994;696;5002;-73
2021/05/22 02:49:21;;;;;;;2.03;1.40;;;;;;;19.68;41.13;101619.94;144994;566;5002;-74
2021/05/22 02:51:51;;;;;;;2.22;1.40;;;;;;;19.69;40.68;101619.09;144994;569;5002;-75
2021/05/22 02:54:22;;;;;;;1.95;1.33;;;;;;;19.70;40.77;101617.31;144994;595;5002;-74
2021/05/22 02:56:50;;;;;;;3.75;1.50;;;;;;;19.66;40.77;101616.44;144994;589;5002;-73
2021/05/22 02:59:18;;;;;;;3.78;1.67;;;;;;;19.68;40.97;101619.09;144994;583;5002;-74
2021/05/22 03:01:45;;;;;;;2.97;1.80;;;;;;;19.72;41.14;101636.66;144994;714;5002;-74
2021/05/22 03:04:13;;;;;;;6.47;1.73;;;;;;;19.71;40.80;101642.78;144994;572;5002;-74
2021/05/22 03:06:40;;;;;;;6.28;1.70;;;;;;;19.73;40.67;101647.19;144994;576;5002;-74
2021/05/22 03:09:06;;;;;;;2.03;1.40;;;;;;;19.68;40.45;101654.19;144994;570;5002;-74
2021/05/22 03:11:34;;;;;;;5.25;1.55;;;;;;;19.69;40.81;101653.34;144994;566;5002;-74
2021/05/22 03:14:01;;;;;;;5.47;2.60;;;;;;;19.57;41.01;101662.00;144994;589;5002;-74
2021/05/22 03:16:27;;;;;;;9.90;3.60;;;;;;;19.45;41.87;101664.53;144994;694;5002;-74
2021/05/22 03:18:54;;;;;;;9.25;3.90;;;;;;;19.31;43.08;101661.81;144994;563;5002;-74
2021/05/22 03:21:20;;;;;;;9.25;3.87;;;;;;;19.27;42.05;101662.66;144994;664;5002;-75
2021/05/22 03:23:46;;;;;;;9.65;3.62;;;;;;;19.29;42.87;101667.91;144994;608;5002;-73
2021/05/22 03:26:13;;;;;;;7.18;3.40;;;;;;;19.23;42.70;101676.63;144994;585;5002;-73
2021/05/22 03:28:39;;;;;;;8.82;3.20;;;;;;;19.30;42.47;101680.22;144994;606;5002;-73
2021/05/22 03:31:06;;;;;;;8.32;3.40;;;;;;;19.40;42.25;101684.69;144994;605;5002;-75
2021/05/22 03:33:32;;;;;;;5.93;3.42;;;;;;;19.46;42.24;101678.59;144994;754;5002;-77
2021/05/22 03:35:59;;;;;;;8.20;3.03;;;;;;;19.52;41.92;101679.53;144994;580;5002;-74
2021/05/22 03:38:25;;;;;;;5.47;2.95;;;;;;;19.57;42.45;101685.72;144994;595;5002;-75
2021/05/22 03:40:52;;;;;;;7.87;3.10;;;;;;;19.61;42.42;101696.28;144994;657;5002;-74
2021/05/22 03:43:18;;;;;;;5.20;2.92;;;;;;;19.62;42.04;101698.91;144994;581;5002;-75
2021/05/22 03:45:44;;;;;;;7.22;2.50;;;;;;;19.64;41.84;101702.44;144994;589;5002;-74
2021/05/22 03:48:12;;;;;;;6.32;2.75;;;;;;;19.68;42.00;101709.50;144994;665;5002;-74
2021/05/22 03:50:39;;;;;;;5.03;2.62;;;;;;;19.71;41.67;101709.53;144994;572;5002;-75
2021/05/22 03:53:07;;;;;;;6.65;3.05;;;;;;;19.77;41.79;101716.62;144994;641;5003;-75
2021/05/22 03:55:33;;;;;;;7.43;2.67;;;;;;;19.80;41.89;101707.87;144994;731;5002;-75
2021/05/22 03:58:00;;;;;;;6.07;2.55;;;;;;;19.83;41.74;101714.03;144994;675;5002;-74
2021/05/22 04:00:27;;;;;;;4.47;2.58;;;;;;;19.85;41.71;101707.03;144994;680;5002;-75
2021/05/22 04:02:53;;;;;;;3.37;2.30;;;;;;;19.89;41.74;101706.16;144994;579;5002;-74
2021/05/22 04:05:20;;;;;;;4.25;2.22;;;;;;;19.89;41.99;101708.81;144994;564;5002;-74
2021/05/22 04:07:47;;;;;;;7.03;2.15;;;;;;;19.89;41.75;101715.84;144994;706;5002;-74
2021/05/22 04:10:13;;;;;;;4.00;2.70;;;;;;;19.89;41.95;101721.13;144994;592;5002;-75
2021/05/22 04:12:39;;;;;;;8.32;2.95;;;;;;;19.92;42.07;101724.63;144994;586;5002;-76
2021/05/22 04:15:07;;;;;;;4.68;2.55;;;;;;;20.00;42.23;101734.38;144994;584;5002;-75
2021/05/22 04:17:33;;;;;;;5.53;2.53;;;;;;;20.03;41.96;101732.63;144994;571;5002;-74
2021/05/22 04:20:00;;;;;;;4.20;2.35;;;;;;;20.05;42.11;101724.72;144994;596;5002;-74
2021/05/22 04:22:26;;;;;;;4.30;2.58;;;;;;;20.11;42.06;101730.91;144994;702;4565;-73
2021/05/22 04:24:53;;;;;;;3.67;2.60;;;;;;;20.20;42.03;101723.94;144994;592;4569;-74
2021/05/22 04:27:19;;;;;;;5.85;2.70;;;;;;;20.28;42.39;101727.50;144994;574;4572;-75
2021/05/22 04:29:46;;;;;;;4.47;2.67;;;;;;;20.35;41.69;101729.31;144992;590;6002;-75
2021/05/22 04:32:12;;;;;;;4.85;2.45;;;;;;;20.41;41.94;101725.78;144992;602;6002;-76
2021/05/22 04:34:39;;;;;;;5.28;2.80;;;;;;;20.43;42.01;101738.13;144992;569;6002;-74
2021/05/22 04:37:05;;;;;;;4.03;2.60;;;;;;;20.48;41.92;101740.78;144992;621;6002;-76
2021/05/22 04:39:32;;;;;;;3.67;2.62;;;;;;;20.51;41.38;101730.25;144992;707;6002;-75
2021/05/22 04:41:58;;;;;;;4.40;2.90;;;;;;;20.53;41.68;101739.06;144992;575;6002;-75
2021/05/22 04:44:25;;;;;;;7.28;2.80;;;;;;;20.57;41.56;101729.38;144992;579;6002;-74
2021/05/22 04:46:51;;;;;;;4.53;2.25;;;;;;;20.59;41.81;101728.53;144992;608;6002;-76
2021/05/22 04:49:18;;;;;;;2.62;2.20;;;;;;;20.64;42.37;101740.00;144992;566;6002;-74
2021/05/22 04:51:45;;;;;;;6.30;2.35;;;;;;;20.70;42.09;101739.16;144992;643;6002;-74
2021/05/22 04:54:12;;;;;;;6.32;2.30;;;;;;;20.77;42.03;101734.78;144992;603;6002;-75
2021/05/22 04:56:47;;;;;;;18.77;2.60;;;;;;;20.85;42.36;101738.34;144992;716;6002;-76
2021/05/22 04:59:18;;;;;;;8.05;3.00;;;;;;;20.71;42.67;101740.94;144992;611;6002;-74
2021/05/22 05:01:45;;;;;;;8.80;2.55;;;;;;;20.79;42.82;101741.84;144992;607;6002;-74
2021/05/22 05:04:12;;;;;;;4.80;2.55;;;;;;;20.94;42.56;101746.28;144992;570;6002;-74
2021/05/22 05:06:40;;;;;;;3.33;2.22;;;;;;;21.07;42.62;101746.34;144992;603;6002;-76
2021/05/22 05:09:07;;;;;;;5.35;2.60;;;;;;;21.20;42.55;101756.94;144992;571;6002;-75
2021/05/22 05:11:34;;;;;;;6.68;2.53;;;;;;;21.30;42.42;101757.81;144992;632;6002;-75
2021/05/22 05:14:01;;;;;;;3.50;2.12;;;;;;;21.22;41.93;101761.31;144992;564;6002;-75
2021/05/22 05:16:28;;;;;;;4.30;2.30;;;;;;;21.31;42.13;101769.25;144992;591;6002;-76
2021/05/22 05:18:55;;;;;;;2.95;2.30;;;;;;;21.40;42.21;101771.06;144992;585;6002;-75
2021/05/22 05:21:24;;;;;;;9.63;2.72;;;;;;;21.43;42.22;101781.59;144992;589;6002;-74
2021/05/22 05:23:51;;;;;;;7.78;2.37;;;;;;;21.46;41.64;101781.59;144992;580;6002;-74
2021/05/22 05:26:17;;;;;;;3.58;2.30;;;;;;;21.50;41.85;101789.56;144992;588;6002;-74
2021/05/22 05:28:44;;;;;;;3.85;2.28;;;;;;;21.50;42.00;101786.06;144992;608;6002;-75
2021/05/22 05:31:11;;;;;;;4.18;2.42;;;;;;;21.54;42.02;101785.19;144992;573;6002;-76
2021/05/22 05:33:37;;;;;;;9.55;2.30;;;;;;;21.59;42.25;101790.44;144992;570;6002;-73
2021/05/22 05:36:04;;;;;;;6.00;2.30;;;;;;;21.65;42.07;101804.56;144992;612;6002;-75
2021/05/22 05:38:31;;;;;;;7.10;2.58;;;;;;;21.68;41.62;101811.59;144992;604;6002;-75
2021/05/22 05:40:58;;;;;;;5.05;2.70;;;;;;;21.65;42.06;101803.69;144992;598;6002;-74
2021/05/22 05:43:25;;;;;;;5.00;2.97;;;;;;;21.61;42.06;101808.09;144992;563;6002;-74
2021/05/22 05:45:51;;;;;;;5.70;3.70;;;;;;;21.61;42.39;101808.09;144992;584;6002;-74
2021/05/22 05:48:17;;;;;;;5.18;2.37;;;;;;;21.57;41.98;101808.97;144992;581;6002;-74
2021/05/22 05:50:44;;;;;;;5.05;2.58;;;;;;;21.63;42.40;101803.66;144992;594;6002;-74
2021/05/22 05:53:10;;;;;;;4.97;2.60;;;;;;;21.75;42.38;101805.47;144992;640;6002;-74
2021/05/22 05:55:37;;;;;;;5.50;2.40;;;;;;;21.84;42.10;101802.81;144992;587;6002;-74
2021/05/22 05:58:04;;;;;;;4.32;3.30;;;;;;;21.87;42.35;101813.41;144992;614;6002;-74
2021/05/22 06:00:30;;;;;;;7.25;3.40;;;;;;;22.00;42.66;101805.44;144992;586;6002;-74
2021/05/22 06:02:57;;;;;;;5.87;2.20;;;;;;;22.01;41.93;101809.87;144992;586;6002;-74
2021/05/22 06:05:23;;;;;;;5.40;2.65;;;;;;;22.06;42.11;101808.09;144992;583;6002;-74
2021/05/22 06:07:50;;;;;;;4.35;2.40;;;;;;;22.13;41.98;101811.59;144992;586;6002;-75
2021/05/22 06:10:17;;;;;;;2.75;2.28;;;;;;;22.05;41.05;101798.41;144992;656;6002;-74
2021/05/22 06:12:45;;;;;;;3.67;2.10;;;;;;;22.04;41.34;101796.66;144992;650;6002;-75
2021/05/22 06:17:57;;;;;;;2.58;1.67;;;;;;;22.08;41.80;101807.22;144992;574;6004;-74
2021/05/22 06:20:23;;;;;;;3.65;2.03;;;;;;;22.15;41.82;101807.22;144992;646;6004;-74
2021/05/22 06:22:50;;;;;;;6.90;2.00;;;;;;;22.21;41.74;101801.94;144992;677;6004;-75
2021/05/22 06:25:16;;;;;;;3.62;2.05;;;;;;;22.28;41.36;101801.88;144992;595;6004;-74
2021/05/22 06:27:44;;;;;;;7.37;3.05;;;;;;;22.21;41.42;101805.44;144992;595;6004;-75
2021/05/22 06:30:11;;;;;;;7.97;3.08;;;;;;;21.63;42.45;101805.44;144992;577;6004;-74
2021/05/22 06:32:38;;;;;;;8.85;3.28;;;;;;;21.56;42.80;101812.50;144992;639;6004;-75
2021/05/22 06:35:05;;;;;;;3.92;2.97;;;;;;;21.51;43.11;101808.97;144992;659;6004;-74
2021/05/22 06:37:32;;;;;;;5.93;3.20;;;;;;;21.67;43.16;101812.50;144992;678;6004;-75
2021/05/22 06:39:58;;;;;;;3.78;2.90;;;;;;;21.68;41.92;101809.87;144992;583;6004;-75
2021/05/22 06:42:27;;;;;;;7.53;2.83;;;;;;;21.69;41.69;101798.41;144992;716;6004;-75
2021/05/22 06:45:03;;;;;;;5.53;2.80;;;;;;;21.60;41.54;101801.03;144992;646;6004;-74
2021/05/22 06:47:29;;;;;;;3.47;1.90;;;;;;;21.54;41.73;101795.75;144992;650;6004;-74
2021/05/22 06:49:56;;;;;;;6.70;2.25;;;;;;;21.49;41.36;101795.75;144992;590;6004;-74
2021/05/22 06:52:22;;;;;;;7.68;3.33;;;;;;;21.52;42.05;101797.50;144992;639;6004;-74
2021/05/22 06:54:49;;;;;;;4.97;2.25;;;;;;;21.52;43.10;101800.13;144992;568;6004;-74
2021/05/22 06:57:16;;;;;;;4.05;2.10;;;;;;;21.08;42.81;101788.56;144992;633;6004;-74
2021/05/22 06:59:43;;;;;;;7.20;2.62;;;;;;;21.22;43.09;101793.91;144992;668;6004;-74
2021/05/22 07:02:09;;;;;;;3.72;2.05;;;;;;;21.47;42.57;101800.09;144992;669;6004;-75
2021/05/22 07:04:36;;;;;;;2.33;1.60;;;;;;;21.67;42.40;101796.66;144992;680;6004;-75
2021/05/22 07:07:02;;;;;;;6.25;1.75;;;;;;;21.66;42.22;101798.38;144992;649;6004;-75
2021/05/22 07:09:29;;;;;;;2.85;1.80;;;;;;;21.78;41.55;101801.91;144992;648;6004;-75
2021/05/22 07:11:55;;;;;;;5.32;1.90;;;;;;;21.41;42.21;101808.00;144992;610;6004;-74
2021/05/22 07:14:22;;;;;;;3.62;1.83;;;;;;;21.38;42.94;101806.25;144992;575;6004;-74
2021/05/22 07:16:48;;;;;;;10.80;1.83;;;;;;;21.45;42.25;101799.22;144992;638;6004;-74
2021/05/22 07:19:15;;;;;;;2.80;1.92;;;;;;;21.43;43.12;101800.09;144992;603;6004;-74
2021/05/22 07:21:41;;;;;;;1.48;1.23;;;;;;;21.60;42.33;101798.38;144992;638;6004;-74
2021/05/22 07:24:08;;;;;;;3.55;1.70;;;;;;;21.76;42.96;101793.13;144992;640;6004;-73
2021/05/22 07:26:35;;;;;;;4.95;1.73;;;;;;;21.86;42.78;101803.69;144992;630;6004;-75
2021/05/22 07:29:03;;;;;;;3.45;1.58;;;;;;;21.85;42.77;101799.28;144992;596;6004;-74
2021/05/22 07:31:29;;;;;;;3.33;1.10;;;;;;;21.95;42.03;101802.81;144992;636;6004;-74
2021/05/22 07:33:56;;;;;;;1.92;1.50;;;;;;;21.79;42.96;101803.69;144992;647;6004;-74
2021/05/22 07:36:22;;;;;;;2.05;1.37;;;;;;;21.82;42.23;101812.50;144992;591;6004;-74
2021/05/22 07:38:50;;;;;;;3.40;1.50;;;;;;;21.85;42.55;101811.62;144992;624;6004;-74
2021/05/22 07:41:20;;;;;;;2.10;1.42;;;;;;;21.95;42.28;101812.50;144992;610;6004;-75
2021/05/22 07:43:47;;;;;;;1.50;1.20;;;;;;;21.94;42.01;101811.62;144992;549;6004;-75
2021/05/22 07:46:13;;;;;;;3.42;1.20;;;;;;;21.93;41.38;101804.56;144992;563;6004;-75
2021/05/22 07:48:40;;;;;;;3.67;1.40;;;;;;;21.76;42.36;101801.03;144992;723;6004;-75
2021/05/22 07:51:06;;;;;;;2.75;1.30;;;;;;;21.81;41.43;101804.56;144992;605;6004;-76
2021/05/22 07:53:33;;;;;;;2.72;1.30;;;;;;;21.91;42.06;101803.69;144992;583;6004;-76
2021/05/22 07:55:59;;;;;;;3.45;1.52;;;;;;;22.00;42.16;101813.37;144991;625;6000;-75
2021/05/22 07:58:26;;;;;;;2.72;1.65;;;;;;;22.07;41.38;101818.66;144992;615;6002;-76
2021/05/22 08:00:53;;;;;;;3.12;1.48;;;;;;;21.91;41.61;101825.72;144992;610;6002;-74
2021/05/22 08:03:24;;;;;;;5.20;1.40;;;;;;;21.93;41.69;101808.09;144992;632;6002;-74
2021/05/22 08:05:51;;;;;;;2.85;1.40;;;;;;;21.91;42.22;101820.44;144992;607;6002;-74
2021/05/22 08:08:17;;;;;;;2.40;1.33;;;;;;;21.96;41.93;101809.00;144992;591;6002;-74
2021/05/22 08:10:43;;;;;;;4.55;1.30;;;;;;;21.93;42.01;101805.44;144992;588;6002;-74
2021/05/22 08:13:10;;;;;;;3.08;1.77;;;;;;;21.89;42.82;101800.19;144992;618;6002;-74
2021/05/22 08:15:49;;;;;;;2.40;1.60;;;;;;;22.08;43.21;101803.72;144992;611;6002;-75
2021/05/22 08:18:25;;;;;;;5.00;1.90;;;;;;;22.14;44.07;101814.25;144992;565;6002;-75
2021/05/22 08:20:53;;;;;;;1.37;1.27;;;;;;;21.90;43.91;101812.50;144992;581;6002;-75
2021/05/22 08:23:21;;;;;;;4.57;1.60;;;;;;;22.04;43.58;101805.44;144992;593;6002;-76
2021/05/22 08:25:47;;;;;;;4.22;1.75;;;;;;;22.26;42.39;101808.09;144992;644;6002;-73
2021/05/22 08:28:20;;;;;;;3.12;1.40;;;;;;;22.06;43.67;101805.44;144992;564;6002;-75
2021/05/22 08:30:49;;;;;;;3.47;1.60;;;;;;;21.90;44.91;101818.69;144992;639;6002;-76
2021/05/22 08:33:16;;;;;;;3.25;1.62;;;;;;;21.84;44.72;101813.41;144992;607;6002;-76
2021/05/22 08:35:43;;;;;;;3.15;1.77;;;;;;;21.92;44.11;101816.03;144992;652;6002;-75
2021/05/22 08:38:10;;;;;;;2.08;1.40;;;;;;;21.95;43.39;101805.44;144992;580;6002;-75
2021/05/22 08:40:37;;;;;;;1.40;1.27;;;;;;;21.85;42.26;101804.56;144992;596;6002;-76
2021/05/22 08:43:03;;;;;;;1.65;0.85;;;;;;;21.98;42.03;101796.66;144991;572;6002;-75
2021/05/22 08:45:32;;;;;;;4.12;1.50;;;;;;;22.06;41.52;101793.13;144992;620;6002;-75
2021/05/22 08:47:59;;;;;;;2.70;1.20;;;;;;;22.07;42.11;101797.50;144992;609;6002;-75
2021/05/22 08:50:26;;;;;;;2.42;1.15;;;;;;;22.29;41.76;101800.16;144992;609;6002;-75
2021/05/22 08:52:56;;;;;;;2.08;1.02;;;;;;;22.31;40.78;101797.53;144992;599;6002;-74
2021/05/22 08:55:23;;;;;;;1.62;1.10;;;;;;;22.29;40.58;101776.34;144992;582;6002;-75
2021/05/22 08:57:50;;;;;;;2.47;1.20;;;;;;;22.23;40.45;101786.94;144992;589;6002;-75
2021/05/22 09:00:20;;;;;;;2.58;1.30;;;;;;;22.27;40.54;101786.94;144992;643;6002;-75
2021/05/22 09:02:47;;;;;;;3.92;2.75;;;;;;;22.30;40.74;101790.47;144992;609;6002;-75
2021/05/22 09:05:29;;;;;;;3.60;2.15;;;;;;;22.35;40.68;101789.59;144992;600;6002;-75
2021/05/22 09:07:57;;;;;;;2.83;1.65;;;;;;;22.43;39.02;101785.16;144992;573;6004;-75
2021/05/22 09:10:37;;;;;;;1.98;1.60;;;;;;;22.51;40.44;101779.84;144992;664;6004;-73
2021/05/22 09:13:14;;;;;;;2.37;1.30;;;;;;;22.59;39.98;101778.06;144992;635;6004;-75
2021/05/22 09:15:42;;;;;;;3.28;1.85;;;;;;;22.76;40.03;101779.75;144992;647;6004;-73
2021/05/22 09:18:19;;;;;;;3.33;1.67;;;;;;;22.56;39.07;101790.41;144992;567;6004;-74
2021/05/22 09:20:58;;;;;;;2.58;1.92;;;;;;;22.80;39.44;101785.03;144992;589;6004;-75
2021/05/22 09:23:27;;;;;;;1.35;1.20;;;;;;;22.90;39.11;101790.28;144992;625;6004;-76
2021/05/22 09:25:59;;;;;;;4.35;1.40;;;;;;;22.93;39.53;101784.97;144992;596;6004;-76
2021/05/22 09:28:31;;;;;;;2.17;1.50;;;;;;;23.00;38.44;101792.87;144992;617;6004;-74
2021/05/22 09:30:58;;;;;;;3.30;1.45;;;;;;;22.99;38.66;101798.19;144992;646;6004;-75
2021/05/22 09:33:27;;;;;;;2.20;1.37;;;;;;;22.93;39.36;101779.69;144992;658;6004;-76
2021/05/22 09:36:14;;;;;;;3.42;1.20;;;;;;;22.90;39.48;101791.16;144992;598;6004;-74
2021/05/22 09:38:52;;;;;;;3.83;1.58;;;;;;;22.94;39.45;101792.91;144992;655;6002;-76
2021/05/22 09:41:27;;;;;;;2.75;1.45;;;;;;;22.92;39.65;101786.75;144992;603;6002;-76
2021/05/22 09:44:14;;;;;;;4.80;1.60;;;;;;;22.97;40.03;101786.72;144992;578;6002;-75
2021/05/22 09:47:03;;;;;;;4.93;1.62;;;;;;;22.96;40.16;101790.25;144992;573;6002;-76
2021/05/22 09:49:34;;;;;;;2.97;1.55;;;;;;;22.95;39.49;101788.50;144992;684;6004;-74
2021/05/22 09:52:27;;;;;;;3.10;1.27;;;;;;;23.05;38.26;101773.44;144991;677;6000;-74
2021/05/22 09:54:58;;;;;;;2.35;1.33;;;;;;;23.05;38.77;101771.69;144992;602;6004;-75
2021/05/22 09:57:55;;;;;;;3.87;1.33;;;;;;;23.06;38.15;101776.06;144992;643;6013;-74
2021/05/22 10:00:24;;;;;;;2.10;1.30;;;;;;;23.27;39.07;101777.75;144992;582;6002;-74
2021/05/22 10:02:57;;;;;;;2.62;1.30;;;;;;;23.40;38.12;101773.28;144992;660;6002;-75
2021/05/22 10:05:26;;;;;;;2.65;1.48;;;;;;;23.41;38.36;101768.84;144992;561;6002;-76
2021/05/22 10:07:56;;;;;;;3.47;1.35;;;;;;;23.47;38.73;101760.84;144992;566;6002;-75
2021/05/22 10:10:36;;;;;;;2.80;1.98;;;;;;;23.47;38.51;101756.41;144992;574;6002;-74
2021/05/22 10:13:06;;;;;;;3.78;1.37;;;;;;;23.58;38.31;101755.47;144992;631;6002;-75
2021/05/22 10:15:33;;;;;;;2.58;1.60;;;;;;;23.74;37.87;101754.44;144992;597;6002;-74
2021/05/22 10:18:00;;;;;;;1.52;1.00;;;;;;;23.67;37.63;101756.28;144992;570;6002;-76
2021/05/22 10:20:28;;;;;;;2.30;1.37;;;;;;;23.49;38.21;101751.13;144992;636;6002;-75
2021/05/22 10:22:55;;;;;;;2.53;1.50;;;;;;;23.61;38.29;101743.06;144992;579;6002;-75
2021/05/22 10:25:22;;;;;;;3.47;1.98;;;;;;;23.63;37.43;101746.59;144992;575;6002;-74
2021/05/22 10:27:49;;;;;;;3.62;1.80;;;;;;;23.77;38.10;101737.66;144992;644;6002;-75
2021/05/22 10:30:17;;;;;;;4.12;1.73;;;;;;;23.80;38.55;101738.50;144992;609;6002;-76
2021/05/22 10:32:44;;;;;;;8.25;3.85;;;;;;;23.84;38.07;101740.25;144992;597;6002;-74
2021/05/22 10:35:13;;;;;;;2.70;2.12;;;;;;;23.97;37.36;101741.00;144992;574;6002;-75
2021/05/22 10:37:43;;;;;;;2.78;1.67;;;;;;;24.05;37.08;101738.28;144992;591;6002;-73
2021/05/22 10:40:15;;;;;;;3.15;1.70;;;;;;;23.85;35.71;101734.06;144991;575;6002;-73
2021/05/22 10:42:48;;;;;;;1.65;1.55;;;;;;;23.83;35.83;101734.91;144992;569;6002;-74
2021/05/22 10:45:29;;;;;;;3.30;1.75;;;;;;;23.80;36.54;101733.19;144992;581;6002;-75
2021/05/22 10:47:59;;;;;;;4.50;1.65;;;;;;;23.78;35.22;101729.66;144993;577;6002;-74
2021/05/22 10:50:46;;;;;;;2.83;1.60;;;;;;;23.76;35.83;101726.16;144993;590;6002;-74
2021/05/22 10:53:45;;;;;;;3.45;2.20;;;;;;;23.86;36.47;101727.88;144993;586;6000;-75
2021/05/22 10:56:16;;;;;;;4.57;1.65;;;;;;;24.06;35.88;101713.53;144993;571;6000;-75
2021/05/22 10:59:20;;;;;;;2.28;1.60;;;;;;;24.17;35.85;101716.06;144993;584;6002;-74
2021/05/22 11:01:47;;;;;;;3.72;2.83;;;;;;;24.20;35.66;101710.72;144993;578;6000;-75
2021/05/22 11:04:32;;;;;;;3.65;2.60;;;;;;;24.16;35.92;101696.59;144993;654;6002;-75
2021/05/22 11:07:16;;;;;;;8.15;4.53;;;;;;;24.11;35.36;101695.78;144993;587;6000;-75
2021/05/22 11:09:44;;;;;;;3.37;2.50;;;;;;;24.22;35.44;101695.66;144993;573;6002;-74
2021/05/22 11:12:50;;;;;;;2.35;1.27;;;;;;;24.40;35.02;101700.75;144993;601;6002;-76
2021/05/22 11:15:45;;;;;;;4.20;1.30;;;;;;;24.50;35.54;101695.31;144993;570;6002;-76
2021/05/22 11:18:14;;;;;;;2.97;1.67;;;;;;;24.42;35.51;101685.69;144992;592;6002;-75
2021/05/22 11:20:42;;;;;;;4.05;1.50;;;;;;;24.43;35.36;101682.16;144992;630;6002;-76
2021/05/22 11:23:12;;;;;;;4.93;2.65;;;;;;;24.57;35.12;101681.97;144992;563;6002;-75
2021/05/22 11:25:51;;;;;;;1.90;1.23;;;;;;;24.60;34.51;101676.63;144992;580;6002;-76
2021/05/22 11:28:21;;;;;;;2.65;1.10;;;;;;;24.66;34.82;101683.66;144991;602;6002;-75
2021/05/22 11:30:52;;;;;;;1.73;1.55;;;;;;;24.62;33.39;101688.13;144993;576;6002;-74
2021/05/22 11:33:38;;;;;;;2.70;1.67;;;;;;;24.63;34.35;101686.34;144993;569;6002;-75
2021/05/22 11:36:14;;;;;;;2.60;1.50;;;;;;;24.42;33.98;101675.06;144992;568;6004;-76
2021/05/22 11:38:42;;;;;;;3.60;1.92;;;;;;;24.54;34.59;101663.41;144993;592;6000;-74
2021/05/22 11:41:10;;;;;;;2.37;1.73;;;;;;;24.59;34.59;101669.59;144993;647;6002;-75
2021/05/22 11:43:41;;;;;;;2.00;1.80;;;;;;;24.42;35.45;101664.47;144993;608;6002;-76
2021/05/22 11:46:17;;;;;;;4.75;1.73;;;;;;;24.53;35.59;101669.62;144993;587;6002;-76
2021/05/22 11:48:53;;;;;;;2.85;1.40;;;;;;;24.62;35.28;101663.34;144993;563;6002;-76